Nearby METAR Reports

 

KDWH - Houston/Dw Hooks, Texas, USA
Distance from station: WNW 3mi, 6km
Updated: 08/04/2020 7:53am
Mostly cloudy
Mostly cloudy
 Wind from WSW
Wind: WSW 5 mph , 7 km/h
Temperature: 79°F , 26°C
Dew Point: 72°F , 22°C
Humidity: 79%
Barometer: 30.01 inHg , 1016.3 hPa
Clouds: Mostly cloudy
Visibility: 10 miles , 16 km
Cloud details: Mostly cloudy 7000 ft
2020/08/04 12:53 KDWH 041253Z AUTO 25004KT 10SM BKN070 26/22 A3001 RMK AO2 SLP160 T02610222
KIAH - Houston/Intnl, Texas, USA
Distance from station: ESE 9mi, 14km
Updated: 08/04/2020 8:53am
Mostly cloudy
Mostly cloudy
 Wind from SW
Wind: SW 5 mph , 7 km/h
Temperature: 82°F , 28°C
Heat Index: 86°F , 30°C
Dew Point: 72°F , 22°C
Humidity: 70%
Barometer: 30.01 inHg , 1016.3 hPa
Clouds: Mostly cloudy
Visibility: 10 miles , 16 km
Cloud details: Few Clouds 2000 ft
Mostly cloudy 6500 ft
Mostly cloudy 12000 ft
Mostly cloudy 18000 ft
Mostly cloudy 25000 ft
2020/08/04 13:53 KIAH 041353Z 22004KT 10SM FEW020 BKN065 BKN120 BKN180 BKN250 28/22 A3001 RMK AO2 SLP162 CB AND SHRA DSNT SW TCU AND SHRA DSNT SE S T02830222
 
KCXO - Conroe, Texas, USA
Distance from station: NNE 21mi, 34km
Updated: 08/04/2020 8:53am
Clear
Clear
 Wind from WSW
Wind: WSW 5 mph , 7 km/h
Temperature: 84°F , 29°C
Heat Index: 90°F , 32°C
Dew Point: 73°F , 23°C
Humidity: 70%
Barometer: 30.02 inHg , 1016.6 hPa
Clouds: Clear
Visibility: 10 miles , 16 km
2020/08/04 13:53 KCXO 041353Z 25004KT 10SM CLR 29/23 A3002 RMK AO2 SLP162 T02890228
KMCJ - Houston/Univ, Texas, USA
Distance from station: SSE 24mi, 39km
Updated: 08/04/2020 8:55am
Partly cloudy
Partly cloudy
 Wind from calm
Wind: Calm
Temperature: 82°F , 28°C
Heat Index: 86°F , 30°C
Dew Point: 72°F , 22°C
Humidity: 70%
Barometer: 30.02 inHg , 1016.6 hPa
Clouds: Partly cloudy
Visibility: 10 miles , 16 km
Cloud details: Partly cloudy 7000 ft
Partly cloudy 8000 ft
2020/08/04 13:55 KMCJ 041355Z AUTO 00000KT 10SM SCT070 SCT080 28/22 A3002 RMK A01
 
KTME - Houston Exec, Texas, USA
Distance from station: SW 30mi, 48km
Updated: 08/04/2020 8:55am
Clear
Clear
 Wind from calm
Wind: Calm
Temperature: 81°F , 27°C
Heat Index: 86°F , 30°C
Dew Point: 73°F , 23°C
Humidity: 79%
Barometer: 30.04 inHg , 1017.3 hPa
Clouds: Clear
Visibility: 10 miles , 16 km
2020/08/04 13:55 KTME 041355Z AUTO 00000KT 10SM CLR 27/23 A3004 RMK AO2
KHOU - Houston/Hobby, Texas, USA
Distance from station: SSE 32mi, 51km
Updated: 08/04/2020 8:53am
Rain, Overcast
Rain, Overcast
 Wind from W
Wind: W 8 mph , 13 km/h
Temperature: 81°F , 27°C
Heat Index: 86°F , 30°C
Dew Point: 73°F , 23°C
Humidity: 79%
Barometer: 30.02 inHg , 1016.6 hPa
Summary: Rain
Clouds: Overcast
Visibility: 7 miles , 11 km
Cloud details: Partly cloudy 3000 ft
Mostly cloudy 6500 ft
Overcast 10000 ft
2020/08/04 13:53 KHOU 041353Z 26007KT 7SM RA SCT030 BKN065 OVC100 27/23 A3002 RMK AO2 RAB14 SLP168 P0020 T02670233
 
KSGR - Houston/Sugar La, Texas, USA
Distance from station: SSW 32mi, 51km
Updated: 08/04/2020 8:53am
Few Clouds
Few Clouds
 Wind from W
Wind: W 3 mph , 6 km/h
Temperature: 82°F , 28°C
Heat Index: 89°F , 32°C
Dew Point: 75°F , 24°C
Humidity: 79%
Barometer: 30.02 inHg , 1016.6 hPa
Clouds: Few Clouds
Visibility: 10 miles , 16 km
Cloud details: Few Clouds 9000 ft
2020/08/04 13:53 KSGR 041353Z 27003KT 10SM FEW090 28/24 A3002 RMK AO2 SLP167 T02830244
K6R3 - Cleveland Muni, Texas, USA
Distance from station: NE 36mi, 58km
Updated: 08/04/2020 8:55am
Mist, Clear
Mist, Clear
 Wind from calm
Wind: Calm
Temperature: 81°F , 27°C
Heat Index: 88°F , 31°C
Dew Point: 77°F , 25°C
Humidity: 89%
Barometer: 30.02 inHg , 1016.6 hPa
Summary: Mist
Clouds: Clear
Visibility: 5 miles , 8 km
2020/08/04 13:55 K6R3 041355Z AUTO 00000KT 5SM BR CLR 27/25 A3002 RMK AO2 T02670246
 
KAXH - Houston/Southwst, Texas, USA
Distance from station: S 37mi, 60km
Updated: 08/04/2020 8:55am
Clear
Clear
 Wind from W
Wind: W 3 mph , 6 km/h
Temperature: 82°F , 28°C
Heat Index: 90°F , 32°C
Dew Point: 77°F , 25°C
Humidity: 84%
Barometer: 30.03 inHg , 1016.9 hPa
Clouds: Clear
Visibility: 10 miles , 16 km
2020/08/04 13:55 KAXH 041355Z AUTO 28003KT 10SM CLR 28/25 A3003 RMK AO2 T02770252
KEFD - Houston/Ellingto, Texas, USA
Distance from station: SSE 37mi, 60km
Updated: 08/04/2020 8:50am
Mostly cloudy
Mostly cloudy
 Wind from W
Wind: W 10 mph , 17 km/h
Temperature: 82°F , 28°C
Heat Index: 89°F , 32°C
Dew Point: 75°F , 24°C
Humidity: 79%
Barometer: 30.01 inHg , 1016.3 hPa
Clouds: Mostly cloudy
Visibility: 10 miles , 16 km
Cloud details: Few Clouds 4000 ft
Mostly cloudy 25000 ft
2020/08/04 13:50 KEFD 041350Z 26009KT 10SM FEW040 BKN250 28/24 A3001
 
KLVJ - Houston, Texas, USA
Distance from station: SSE 40mi, 64km
Updated: 08/04/2020 8:53am
Mostly cloudy
Mostly cloudy
 Wind from WNW
Wind: WNW 6 mph , 9 km/h
Temperature: 84°F , 29°C
Heat Index: 90°F , 32°C
Dew Point: 73°F , 23°C
Humidity: 70%
Barometer: 30.04 inHg , 1017.3 hPa
Clouds: Mostly cloudy
Visibility: 10 miles , 16 km
Cloud details: Mostly cloudy 11000 ft
2020/08/04 13:53 KLVJ 041353Z AUTO 30005KT 10SM BKN110 29/23 A3004 RMK AO2 SLP170 T02890233
KUTS - Huntsville, Texas, USA
Distance from station: N 48mi, 78km
Updated: 08/04/2020 8:53am
Clear
Clear
 Wind from calm
Wind: Calm
Temperature: 82°F , 28°C
Heat Index: 86°F , 30°C
Dew Point: 70°F , 21°C
Humidity: 66%
Barometer: 30.03 inHg , 1016.9 hPa
Clouds: Clear
Visibility: 10 miles , 16 km
2020/08/04 13:53 KUTS 041353Z AUTO 00000KT 10SM CLR 28/21 A3003 RMK AO2 SLP162 T02780211